Valmont Industries (VMI) Latest Bloomsberg Price


Mffais Ranking #2076 Overall / #17 Industry
Industry: Fabricated Metal And Hardware

Number of Companies: 178 (Ranking #949 Overall/#2 Industry)
Inflow: $ 33,107 (K) (Ranking #1513 Overall/#8 Industry)
Outflow: $ -54,369 (K)
Mffais Flow: $ -21,261 (K) (Ranking #2076 Overall/#17 Industry)


Receive a FREE weekly executive review of stocks moving into the top 10, taking the top industy spot or moving up within their industry. Sent directly to your Inbox every Saturday. Sign up today and get last week's review immediately sent to you.

We value and respect your privacy. Please read our Terms and Conditions which states our firm commitment to your privacy. Your email address will not be shared with a third party, nor will it be sold or used for purposes other than subscription for the weekly review.

Owner CPOR Shares Action Qty Chg Invested (K) Total Current Value (K)
Ack Asset Management Llc 2016-09-30 42,000 New Holding 42,000 $ 5,460 $ 5,460
Perkins Investment Management Llc 2016-09-30 463,984 Added More 39,214 $ 5,098 $ 60,322
William Blair Investment Management Llc 2016-09-30 129,937 Added More 31,248 $ 4,062 $ 16,893
Robecosam Ag 2016-09-30 135,413 Added More 21,237 $ 2,761 $ 17,605
Panagora Asset Management Inc 2016-09-30 143,237 Added More 17,563 $ 2,283 $ 18,622
Arbor Capital Management Llc 2016-06-30 14,653 New Holding 14,653 $ 1,982 $ 1,982
Teachers Advisors Inc 2016-09-30 61,226 Added More 11,529 $ 1,498 $ 7,959
Northern Trust Corp 2016-09-30 198,830 Added More 10,767 $ 1,399 $ 25,849
King Luther Capital Management Corp 2016-09-30 176,582 Added More 8,896 $ 1,156 $ 22,957
Quantitative Investment Management Llc 2016-09-30 6,900 New Holding 6,900 $ 897 $ 897
Dimensional Fund Advisors Lp 2016-09-30 629,651 Added More 6,685 $ 869 $ 81,860
Kcg Holdings Inc 2016-09-30 9,371 Added More 3,915 $ 508 $ 1,218
Garrison Financial Corp 2016-09-30 14,739 Added More 2,953 $ 383 $ 1,916
Copper Rock Capital Partners Llc 2016-09-30 2,870 New Holding 2,870 $ 373 $ 373
Cutler Group Lp 2016-09-30 3,290 Added More 2,690 $ 349 $ 427
Robecosam Usa Inc 2016-09-30 19,438 Added More 2,496 $ 324 $ 2,527
Verity Asset Management Inc 2016-09-30 1,829 New Holding 1,829 $ 237 $ 237
World Asset Management Inc 2016-09-30 1,656 New Holding 1,656 $ 215 $ 215
Qv Investors Inc 2016-09-30 224,171 Added More 1,603 $ 208 $ 29,144
Cypress Asset Management Inc Tx 2016-09-30 1,524 New Holding 1,524 $ 198 $ 198
Argi Investment Services Llc 2016-09-30 1,523 New Holding 1,523 $ 198 $ 198
Btim Corp 2016-09-30 184,996 Added More 1,445 $ 187 $ 24,051
Td Asset Management Inc 2016-09-30 10,935 Added More 1,300 $ 169 $ 1,421
Ahl Partners Llp 2016-09-30 11,886 Added More 1,296 $ 168 $ 1,545
Crawford Investment Counsel Inc 2016-09-30 9,420 Added More 1,270 $ 165 $ 1,224
Farr Miller Washington Llc Dc 2016-09-30 154,094 Added More 1,257 $ 163 $ 20,033
Nuveen Asset Management Llc 2016-09-30 108,564 Added More 1,240 $ 161 $ 14,114
Baker Boyer National Bank 2016-09-30 5,500 Added More 1,000 $ 130 $ 715
Raymond James Associates 2016-09-30 13,169 Added More 815 $ 105 $ 1,712
Cantab Capital Partners Llp 2016-09-30 1,313 Added More 813 $ 105 $ 170
Bahl Gaynor Inc 2016-09-30 8,128 Added More 735 $ 95 $ 1,056
Legal General Group Plc 2016-09-30 11,506 Added More 729 $ 94 $ 1,495
Kbc Group Nv 2016-09-30 26,581 Added More 717 $ 93 $ 3,455
Nitorum Capital L P 2016-09-30 35,265 Added More 717 $ 93 $ 4,584
Speece Thorson Capital Group Inc 2016-09-30 67,425 Added More 620 $ 80 $ 8,765
Fca Corp Tx 2016-09-30 22,014 Added More 515 $ 66 $ 2,862
Stifel Financial Corp 2016-09-30 11,092 Added More 499 $ 64 $ 1,442
Advisors Asset Management Inc 2016-09-30 3,472 Added More 496 $ 64 $ 451
Blackrock Inc 2016-09-30 13,608 Added More 419 $ 54 $ 1,769
California State Teachers Retirement System 2016-09-30 47,664 Added More 400 $ 52 $ 6,196
Fuller Thaler Asset Management Inc 2016-09-30 400 New Holding 400 $ 52 $ 52
Aperio Group Llc 2016-09-30 3,133 Added More 396 $ 51 $ 407
Guggenheim Capital Llc 2016-09-30 2,134 Added More 332 $ 43 $ 277
Thrivent Financial For Lutherans 2016-09-30 3,540 Added More 320 $ 41 $ 460
Teachers Retirement System Of The State Of Kentucky 2016-09-30 4,800 Added More 300 $ 39 $ 624
Arlington Value Capital Llc 2016-09-30 21,060 Added More 300 $ 39 $ 2,738
Fdx Advisors Inc 2016-09-30 2,088 Added More 268 $ 34 $ 271
Royce Associates Lp 2016-09-30 820,845 Added More 260 $ 33 $ 106,718
Argent Capital Management Llc 2016-09-30 2,302 Added More 200 $ 26 $ 299
Zurcher Kantonalbank Zurich Cantonalbank 2016-09-30 2,659 Added More 186 $ 24 $ 345
Cetera Advisor Networks Llc 2016-09-30 3,752 Added More 183 $ 23 $ 487
Envestnet Asset Management Inc 2016-09-30 3,085 Added More 175 $ 22 $ 401
Baird Financial Group Inc 2016-09-30 6,239 Added More 155 $ 20 $ 811
Mason Street Advisors Llc 2016-09-30 10,474 Added More 128 $ 16 $ 1,361
Ls Investment Advisors Llc 2016-09-30 1,482 Added More 93 $ 12 $ 192
Springbok Capital Management Llc 2016-09-30 223 Added More 78 $ 10 $ 28
F V Capital Management Llc 2016-09-30 13,073 Added More 75 $ 9 $ 1,699
Rothschild Investment Corp Il 2016-09-30 2,110 Added More 75 $ 9 $ 274
Capstone Asset Management Co 2016-09-30 2,418 Added More 57 $ 7 $ 314
Advisor Group Inc 2016-09-30 284 Added More 22 $ 2 $ 36
Pnc Financial Services Group Inc 2016-09-30 3,393 Added More 14 $ 1 $ 441
Weaver C Barksdale Associates Inc 2016-09-30 95 Added More 11 $ 1 $ 12
Farmers Merchants Investments Inc 2016-09-30 200 No Change 0 $ 0 $ 26
Bluestein R H Co 2016-09-30 2,000 No Change 0 $ 0 $ 260
Quadrant Capital Group Llc 2016-09-30 9 No Change 0 $ 0 $ 1
Dekabank Deutsche Girozentrale 2016-09-30 1,000 No Change 0 $ 0 $ 130
Snyder Capital Management L P 2016-09-30 12,884 No Change 0 $ 0 $ 1,675
Advantus Capital Management Inc 2016-09-30 2,747 No Change 0 $ 0 $ 357
Gabelli Funds Llc 2016-09-30 31,000 No Change 0 $ 0 $ 4,030
I G Investment Management Ltd 2016-09-30 9,270 No Change 0 $ 0 $ 1,205
New York State Teachers Retirement System 2016-09-30 39,060 No Change 0 $ 0 $ 5,078
Clifford Swan Investment Counsel Llc 2016-09-30 5,100 No Change 0 $ 0 $ 663
Value Holdings Lp 2016-09-30 18,701 No Change 0 $ 0 $ 2,431
Springbank Value Partners Lp 2016-09-30 1,400 No Change 0 $ 0 $ 182
Proficio Capital Partners Llc 2016-09-30 2 No Change 0 $ 0 $ 0
D Scott Neal Inc 2016-09-30 250 No Change 0 $ 0 $ 32
Msi Financial Services Inc 2016-09-30 25 No Change 0 $ 0 $ 3
Oshaughnessy Asset Management Llc 2016-09-30 6 No Change 0 $ 0 $ 0
Winfield Associates Inc 2016-09-30 10 No Change 0 $ 0 $ 1
Impax Asset Management Ltd 2016-09-30 109,450 No Change 0 $ 0 $ 14,229
Gamco Investors Inc Et Al 2016-09-30 10,000 No Change 0 $ 0 $ 1,300
Cwm Llc 2016-09-30 27 No Change 0 $ 0 $ 3
Qs Investors Llc 2016-09-30 15 No Change 0 $ 0 $ 1
Meristem Llp 2016-09-30 4,000 No Change 0 $ 0 $ 520
Highlander Capital Management Llc 2016-09-30 4,600 No Change 0 $ 0 $ 598
Delta Asset Management Llc Tn 2016-09-30 1,370 No Change 0 $ 0 $ 178
Horizon Kinetics Llc 2016-09-30 3,075 No Change 0 $ 0 $ 399
Arizona State Retirement System 2016-09-30 8,888 No Change 0 $ 0 $ 1,155
Utah Retirement Systems 2016-09-30 4,119 No Change 0 $ 0 $ 535
Eulav Asset Management 2016-09-30 21,600 No Change 0 $ 0 $ 2,808
Independent Order Of Foresters 2016-09-30 1,956 No Change 0 $ 0 $ 254
Nisa Investment Advisors Llc 2016-09-30 14,900 No Change 0 $ 0 $ 1,937
Ifp Advisors Inc 2016-09-30 107 No Change 0 $ 0 $ 13
Duncker Streett Co Inc 2016-09-30 70 No Change 0 $ 0 $ 9
Gemmer Asset Management Llc 2016-09-30 58 No Change 0 $ 0 $ 7
Yacktman Asset Management Lp 2016-09-30 1,800 No Change 0 $ 0 $ 234
State Treasurer State Of Michigan 2016-09-30 9,100 No Change 0 $ 0 $ 1,183
Employees Retirement System Of Texas 2016-09-30 11,008 No Change 0 $ 0 $ 1,431
Meeder Asset Management Inc 2016-09-30 0 Sold All -3 $ -0 $ 0
Northwestern Mutual Investment Management Company Llc 2016-09-30 3,898 Sold Some -19 $ -2 $ 506
Comerica Bank 2016-09-30 16,297 Sold Some -29 $ -3 $ 2,118
Invictus Rg 2016-09-30 115 Sold Some -38 $ -4 $ 14
First Republic Investment Management Inc 2016-09-30 2,087 Sold Some -43 $ -5 $ 271
Baldwin Brothers Inc Ma 2016-09-30 0 Sold All -50 $ -6 $ 0
Parametric Portfolio Associates Llc 2016-09-30 16,151 Sold Some -54 $ -7 $ 2,099
Thompson Siegel Walmsley Llc 2016-09-30 0 Sold All -65 $ -8 $ 0
Retirement Systems Of Alabama 2016-09-30 29,171 Sold Some -92 $ -11 $ 3,792
Johnson Financial Group Inc 2016-09-30 105 Sold Some -100 $ -13 $ 13
Westport Resources Management Inc 2016-09-30 100 Sold Some -100 $ -13 $ 13
Commerce Bank 2016-09-30 1,960 Sold Some -100 $ -13 $ 254
First National Bank Of Omaha 2016-09-30 4,500 Sold Some -100 $ -13 $ 585
Texas Permanent School Fund 2016-09-30 17,245 Sold Some -101 $ -13 $ 2,242
Pdt Partners Llc 2016-09-30 26,000 Sold Some -101 $ -13 $ 3,380
British Airways Pensions Investment Management Ltd 2016-09-30 116,601 Sold Some -105 $ -13 $ 15,159
Ibm Retirement Fund 2016-09-30 2,121 Sold Some -121 $ -15 $ 275
Proshare Advisors Llc 2016-09-30 1,902 Sold Some -139 $ -18 $ 247
American International Group Inc 2016-09-30 43,600 Sold Some -178 $ -23 $ 5,668
Loring Wolcott Coolidge Fiduciary Advisors Llp Ma 2016-09-30 11,707 Sold Some -195 $ -25 $ 1,522
Shell Asset Management Co 2016-09-30 4,571 Sold Some -209 $ -27 $ 594
Liberty Mutual Group Asset Management Inc 2016-09-30 9,676 Sold Some -214 $ -27 $ 1,257
Tower Research Capital Llc Trc 2016-09-30 207 Sold Some -274 $ -35 $ 26
Us Bancorp De 2016-09-30 10,332 Sold Some -287 $ -37 $ 1,343
Acrospire Investment Management Llc 2016-09-30 0 Sold All -300 $ -39 $ 0
Hsbc Holdings Plc 2016-09-30 2,711 Sold Some -303 $ -39 $ 352
Mutual Of America Capital Management Llc 2016-09-30 16,900 Sold Some -304 $ -39 $ 2,197
Checchi Capital Advisers Llc 2016-09-30 0 Sold All -327 $ -42 $ 0
Shufro Rose Co Llc 2016-09-30 70,289 Sold Some -360 $ -46 $ 9,138
Next Financial Group Inc 2016-09-30 7 Sold Some -361 $ -46 $ 0
Hamel Associates Inc 2016-09-30 10,860 Sold Some -400 $ -52 $ 1,411
Ladenburg Thalmann Financial Services Inc 2016-09-30 2,919 Sold Some -403 $ -52 $ 379
Zwj Investment Counsel Inc 2016-09-30 80,005 Sold Some -445 $ -57 $ 10,401
Arcadia Investment Management Corp Mi 2016-09-30 9,045 Sold Some -460 $ -59 $ 1,175
Pioneer Trust Bank N A Or 2016-09-30 50,916 Sold Some -560 $ -72 $ 6,619
Raymond James Financial Services Advisors Inc 2016-09-30 2,765 Sold Some -594 $ -77 $ 359
Teacher Retirement System Of Texas 2016-09-30 2,518 Sold Some -700 $ -91 $ 327
Peak6 Investments L P 2016-09-30 30,100 Sold Some -700 $ -91 $ 3,913
Blair William Co Il 2016-09-30 1,801 Sold Some -776 $ -100 $ 234
Pacad Investment Ltd 2016-09-30 1,910 Sold Some -800 $ -104 $ 248
Blackrock Investment Management Llc 2016-09-30 64,481 Sold Some -864 $ -112 $ 8,383
Nationwide Fund Advisors 2016-09-30 40,201 Sold Some -895 $ -116 $ 5,226
M T Bank Corp 2016-09-30 2,063 Sold Some -1,001 $ -130 $ 268
Third Avenue Management Llc 2016-09-30 2,369 Sold Some -1,306 $ -169 $ 307
Profund Advisors Llc 2016-09-30 3,073 Sold Some -1,465 $ -190 $ 399
Intersect Capital Llc 2016-09-30 0 Sold All -2,097 $ -272 $ 0
Swiss National Bank 2016-09-30 37,000 Sold Some -2,300 $ -299 $ 4,810
Oregon Public Employees Retirement Fund 2016-09-30 8,059 Sold Some -2,344 $ -304 $ 1,047
Hedeker Wealth Llc 2016-09-30 0 Sold All -2,430 $ -315 $ 0
Shelton Capital Management 2016-09-30 0 Sold All -2,476 $ -321 $ 0
Reliance Trust Co Of Delaware 2016-09-30 0 Sold All -2,626 $ -341 $ 0
Creative Planning 2016-09-30 8,559 Sold Some -3,055 $ -397 $ 1,112
Rhumbline Advisers 2016-09-30 41,377 Sold Some -3,834 $ -498 $ 5,379
Spot Trading L L C 2016-09-30 0 Sold All -4,000 $ -520 $ 0
Cibc World Markets Inc 2016-09-30 0 Sold All -4,043 $ -525 $ 0
Dynamic Capital Management Ltd 2016-09-30 9,810 Sold Some -4,071 $ -529 $ 1,275
Bayesian Capital Management Lp 2016-09-30 0 Sold All -4,100 $ -533 $ 0
Chicago Equity Partners Llc 2016-09-30 18,610 Sold Some -4,165 $ -541 $ 2,419
Sei Investments Co 2016-09-30 1,401 Sold Some -4,385 $ -570 $ 182
Walleye Trading Llc 2016-09-30 600 Sold Some -4,458 $ -579 $ 78
Makaira Partners Llc 2016-09-30 662,445 Sold Some -4,889 $ -635 $ 86,124
Bluemountain Capital Management Llc 2016-09-30 7,766 Sold Some -5,419 $ -704 $ 1,009
Ironbridge Capital Management Lp 2016-09-30 65,580 Sold Some -6,190 $ -804 $ 8,526
Sg Americas Securities Llc 2016-09-30 1,248 Sold Some -6,253 $ -812 $ 162
Kovitz Investment Group Partners Llc 2016-09-30 320,976 Sold Some -6,829 $ -887 $ 41,730
Sprucegrove Investment Management Ltd 2016-09-30 169,000 Sold Some -7,700 $ -1,001 $ 21,971
New York State Common Retirement Fund 2016-09-30 48,100 Sold Some -8,000 $ -1,040 $ 6,253
Bright Rock Capital Management Llc 2016-09-30 0 Sold All -8,500 $ -1,105 $ 0
Seizert Capital Partners Llc 2016-09-30 287,868 Sold Some -9,932 $ -1,291 $ 37,425
Babson Capital Management Llc 2016-09-30 3,990 Sold Some -10,650 $ -1,384 $ 518
Capital Fund Management S A 2016-09-30 0 Sold All -11,416 $ -1,484 $ 0
Spitfire Capital Llc 2016-09-30 44,550 Sold Some -11,600 $ -1,508 $ 5,791
Stevens Capital Management Lp 2016-09-30 0 Sold All -15,714 $ -2,042 $ 0
Dupont Capital Management Corp 2016-09-30 0 Sold All -18,751 $ -2,437 $ 0
Gotham Asset Management Llc 2016-09-30 0 Sold All -19,247 $ -2,502 $ 0
Cornerstone Capital Management Holdings Llc 2016-09-30 0 Sold All -19,259 $ -2,503 $ 0
Eam Investors Llc 2016-09-30 0 Sold All -20,521 $ -2,667 $ 0
Emerald Acquisition Ltd 2016-09-30 2,841 Sold Some -26,739 $ -3,476 $ 369
First Quadrant L P Ca 2016-09-30 101,353 Sold Some -38,502 $ -5,005 $ 13,176
Castleark Management Llc 2016-09-30 0 Sold All -95,660 $ -12,436 $ 0